Portada
METAR-TAF:

METAR-TAF

Aeropuertos :

Aeropuerto Internacional Philip S. W. Goldson

Ciudad de Belice, Belice

latitud: 17-32N, longitud: 088-18W, altitud: 5 m

Observación

El informe se hizo hace 46 minutos, a las 00:00 UTC
Viento 4 kt del noroeste
Temperatura 24°C
Humedad 74%
Presión 1016 hPa
Visibilidad 10 km o más
Escasas nubes a una altura de 1800 ft
Cielo nuboso a una altura de 4500 ft

METAR: MZBZ 170000Z 32004KT 9999 FEW018 BKN045 24/19 A3001 Q1016 NOSIG

Hora: 18:46 (00:46 UTC)

Pronóstico

El informe se hizo hace 3 horas y 11 minutos, a las 21:35 UTC
Pronóstico válido del 17 a las 00 UTC al 17 a las 24 UTC
Viento 9 kt del norte
Visibilidad 10 km o más
Nubes dispersas a una altura de 2000 ft
Nubes dispersas a una altura de 4800 ft

TAF: MZBZ 162135Z 1700/1724 35009KT 9999 SCT020 SCT048

Observaciones y pronósticos meteorológicos de más de 4000 aeropuertos (mensajes METAR y TAF).

Los puntos amarillos y rojos representan las estaciones disponibles.

Ponga el ratón en el punto deseado para ver el nombre de la estación.

Haga clic para ver las observaciones y los pronósticos meteorológicos.

Para cambiar el mapa : haga clic en los botones verdes con una cruz de color negro para hacer un zoom, en el botón verde con un guión para alejar o en las flechas verdes para mapas adyacentes.


METAR-TAF: